sensor_id;sensor_type;location;lat;lon;timestamp;P1;durP1;ratioP1;P2;durP2;ratioP2
30593;SDS011;33199;47.590;8.300;2023-03-01T00:02:02;6.18;;;5.30;;
30593;SDS011;33199;47.590;8.300;2023-03-01T00:04:27;6.65;;;5.50;;
30593;SDS011;33199;47.590;8.300;2023-03-01T00:06:53;9.95;;;5.43;;
30593;SDS011;33199;47.590;8.300;2023-03-01T00:09:19;6.18;;;5.13;;
30593;SDS011;33199;47.590;8.300;2023-03-01T00:11:45;6.20;;;4.90;;
30593;SDS011;33199;47.590;8.300;2023-03-01T00:14:11;5.90;;;5.28;;
30593;SDS011;33199;47.590;8.300;2023-03-01T00:16:38;7.30;;;5.15;;
30593;SDS011;33199;47.590;8.300;2023-03-01T00:19:05;6.38;;;4.93;;
30593;SDS011;33199;47.590;8.300;2023-03-01T00:21:41;9.93;;;5.22;;
30593;SDS011;33199;47.590;8.300;2023-03-01T00:24:07;5.80;;;4.80;;
30593;SDS011;33199;47.590;8.300;2023-03-01T00:26:33;5.95;;;4.97;;
30593;SDS011;33199;47.590;8.300;2023-03-01T00:28:58;6.22;;;4.70;;
30593;SDS011;33199;47.590;8.300;2023-03-01T00:31:27;5.18;;;4.68;;
30593;SDS011;33199;47.590;8.300;2023-03-01T00:33:56;6.85;;;4.95;;
30593;SDS011;33199;47.590;8.300;2023-03-01T00:36:24;5.35;;;4.85;;
30593;SDS011;33199;47.590;8.300;2023-03-01T00:38:53;7.13;;;5.10;;
30593;SDS011;33199;47.590;8.300;2023-03-01T00:41:19;6.35;;;5.15;;
30593;SDS011;33199;47.590;8.300;2023-03-01T00:43:45;7.95;;;5.47;;
30593;SDS011;33199;47.590;8.300;2023-03-01T00:46:14;5.55;;;4.72;;
30593;SDS011;33199;47.590;8.300;2023-03-01T00:48:41;7.45;;;5.13;;
30593;SDS011;33199;47.590;8.300;2023-03-01T00:51:08;7.68;;;5.10;;
30593;SDS011;33199;47.590;8.300;2023-03-01T00:53:35;7.25;;;5.43;;
30593;SDS011;33199;47.590;8.300;2023-03-01T00:56:02;4.97;;;4.47;;
30593;SDS011;33199;47.590;8.300;2023-03-01T00:58:29;6.28;;;5.25;;
30593;SDS011;33199;47.590;8.300;2023-03-01T01:00:55;7.15;;;4.85;;
30593;SDS011;33199;47.590;8.300;2023-03-01T01:03:20;8.25;;;5.13;;
30593;SDS011;33199;47.590;8.300;2023-03-01T01:05:46;6.72;;;5.07;;
30593;SDS011;33199;47.590;8.300;2023-03-01T01:08:12;5.72;;;4.68;;
30593;SDS011;33199;47.590;8.300;2023-03-01T01:10:38;5.18;;;4.47;;
30593;SDS011;33199;47.590;8.300;2023-03-01T01:13:03;5.78;;;5.05;;
30593;SDS011;33199;47.590;8.300;2023-03-01T01:15:29;5.47;;;4.97;;
30593;SDS011;33199;47.590;8.300;2023-03-01T01:17:58;6.20;;;4.47;;
30593;SDS011;33199;47.590;8.300;2023-03-01T01:20:24;6.43;;;5.28;;
30593;SDS011;33199;47.590;8.300;2023-03-01T01:22:53;5.57;;;4.93;;
30593;SDS011;33199;47.590;8.300;2023-03-01T01:25:18;6.00;;;4.93;;
30593;SDS011;33199;47.590;8.300;2023-03-01T01:27:44;5.13;;;4.47;;
30593;SDS011;33199;47.590;8.300;2023-03-01T01:30:10;6.55;;;4.95;;
30593;SDS011;33199;47.590;8.300;2023-03-01T01:32:36;6.30;;;4.97;;
30593;SDS011;33199;47.590;8.300;2023-03-01T01:35:02;7.20;;;4.75;;
30593;SDS011;33199;47.590;8.300;2023-03-01T01:37:28;7.22;;;4.80;;
30593;SDS011;33199;47.590;8.300;2023-03-01T01:39:55;5.47;;;4.75;;
30593;SDS011;33199;47.590;8.300;2023-03-01T01:42:22;5.03;;;4.50;;
30593;SDS011;33199;47.590;8.300;2023-03-01T01:45:15;5.07;;;4.57;;
30593;SDS011;33199;47.590;8.300;2023-03-01T01:47:52;5.78;;;4.90;;
30593;SDS011;33199;47.590;8.300;2023-03-01T01:50:20;6.20;;;5.15;;
30593;SDS011;33199;47.590;8.300;2023-03-01T01:52:47;8.18;;;4.85;;
30593;SDS011;33199;47.590;8.300;2023-03-01T01:55:16;6.25;;;4.70;;
30593;SDS011;33199;47.590;8.300;2023-03-01T01:57:47;7.35;;;4.53;;
30593;SDS011;33199;47.590;8.300;2023-03-01T02:00:17;7.63;;;4.95;;
30593;SDS011;33199;47.590;8.300;2023-03-01T02:02:48;5.43;;;4.50;;
30593;SDS011;33199;47.590;8.300;2023-03-01T02:07:57;6.28;;;5.00;;
30593;SDS011;33199;47.590;8.300;2023-03-01T02:10:24;7.85;;;5.05;;
30593;SDS011;33199;47.590;8.300;2023-03-01T02:12:51;6.07;;;4.83;;
30593;SDS011;33199;47.590;8.300;2023-03-01T02:15:18;6.43;;;5.18;;
30593;SDS011;33199;47.590;8.300;2023-03-01T02:17:44;5.70;;;5.13;;
30593;SDS011;33199;47.590;8.300;2023-03-01T02:20:14;5.50;;;4.75;;
30593;SDS011;33199;47.590;8.300;2023-03-01T02:22:57;8.65;;;4.78;;
30593;SDS011;33199;47.590;8.300;2023-03-01T02:25:39;6.40;;;4.78;;
30593;SDS011;33199;47.590;8.300;2023-03-01T02:31:01;5.53;;;4.50;;
30593;SDS011;33199;47.590;8.300;2023-03-01T02:33:54;4.95;;;4.45;;
30593;SDS011;33199;47.590;8.300;2023-03-01T02:36:24;6.70;;;4.97;;
30593;SDS011;33199;47.590;8.300;2023-03-01T02:38:56;4.97;;;4.45;;
30593;SDS011;33199;47.590;8.300;2023-03-01T02:41:23;6.55;;;4.72;;
30593;SDS011;33199;47.590;8.300;2023-03-01T02:43:52;7.30;;;5.28;;
30593;SDS011;33199;47.590;8.300;2023-03-01T02:46:21;6.68;;;5.28;;
30593;SDS011;33199;47.590;8.300;2023-03-01T02:48:50;5.18;;;4.32;;
30593;SDS011;33199;47.590;8.300;2023-03-01T02:51:37;6.30;;;4.72;;
30593;SDS011;33199;47.590;8.300;2023-03-01T02:56:35;5.93;;;4.93;;
30593;SDS011;33199;47.590;8.300;2023-03-01T02:59:01;5.15;;;4.40;;
30593;SDS011;33199;47.590;8.300;2023-03-01T03:01:28;5.18;;;4.68;;
30593;SDS011;33199;47.590;8.300;2023-03-01T03:04:02;4.97;;;4.47;;
30593;SDS011;33199;47.590;8.300;2023-03-01T03:06:32;7.15;;;4.97;;
30593;SDS011;33199;47.590;8.300;2023-03-01T03:08:58;5.22;;;4.38;;
30593;SDS011;33199;47.590;8.300;2023-03-01T03:11:25;6.10;;;4.85;;
30593;SDS011;33199;47.590;8.300;2023-03-01T03:13:52;6.63;;;5.10;;
30593;SDS011;33199;47.590;8.300;2023-03-01T03:16:18;5.65;;;5.00;;
30593;SDS011;33199;47.590;8.300;2023-03-01T03:18:48;5.65;;;4.90;;
30593;SDS011;33199;47.590;8.300;2023-03-01T03:21:14;5.75;;;4.85;;
30593;SDS011;33199;47.590;8.300;2023-03-01T03:23:41;4.90;;;4.22;;
30593;SDS011;33199;47.590;8.300;2023-03-01T03:26:07;7.22;;;4.72;;
30593;SDS011;33199;47.590;8.300;2023-03-01T03:28:33;8.95;;;4.93;;
30593;SDS011;33199;47.590;8.300;2023-03-01T03:31:00;6.43;;;4.80;;
30593;SDS011;33199;47.590;8.300;2023-03-01T03:33:31;5.57;;;4.50;;
30593;SDS011;33199;47.590;8.300;2023-03-01T03:35:57;5.50;;;4.63;;
30593;SDS011;33199;47.590;8.300;2023-03-01T03:38:23;5.45;;;4.85;;
30593;SDS011;33199;47.590;8.300;2023-03-01T03:40:59;6.00;;;4.70;;
30593;SDS011;33199;47.590;8.300;2023-03-01T03:43:30;5.68;;;5.05;;
30593;SDS011;33199;47.590;8.300;2023-03-01T03:45:57;6.20;;;5.10;;
30593;SDS011;33199;47.590;8.300;2023-03-01T03:48:23;5.07;;;4.57;;
30593;SDS011;33199;47.590;8.300;2023-03-01T03:50:50;7.13;;;4.47;;
30593;SDS011;33199;47.590;8.300;2023-03-01T03:53:18;6.85;;;5.07;;
30593;SDS011;33199;47.590;8.300;2023-03-01T03:55:44;5.25;;;4.75;;
30593;SDS011;33199;47.590;8.300;2023-03-01T03:58:14;5.80;;;5.20;;
30593;SDS011;33199;47.590;8.300;2023-03-01T04:00:41;5.03;;;4.60;;
30593;SDS011;33199;47.590;8.300;2023-03-01T04:03:11;5.07;;;4.55;;
30593;SDS011;33199;47.590;8.300;2023-03-01T04:05:40;5.47;;;4.40;;
30593;SDS011;33199;47.590;8.300;2023-03-01T04:08:06;7.13;;;4.80;;
30593;SDS011;33199;47.590;8.300;2023-03-01T04:10:34;7.30;;;4.50;;
30593;SDS011;33199;47.590;8.300;2023-03-01T04:13:05;5.25;;;4.75;;
30593;SDS011;33199;47.590;8.300;2023-03-01T04:15:31;5.50;;;4.40;;
30593;SDS011;33199;47.590;8.300;2023-03-01T04:17:58;6.60;;;4.90;;
30593;SDS011;33199;47.590;8.300;2023-03-01T04:20:26;7.10;;;5.50;;
30593;SDS011;33199;47.590;8.300;2023-03-01T04:22:57;6.68;;;5.10;;
30593;SDS011;33199;47.590;8.300;2023-03-01T04:25:24;5.85;;;5.22;;
30593;SDS011;33199;47.590;8.300;2023-03-01T04:27:51;6.68;;;5.00;;
30593;SDS011;33199;47.590;8.300;2023-03-01T04:30:17;5.45;;;4.90;;
30593;SDS011;33199;47.590;8.300;2023-03-01T04:32:42;5.10;;;4.60;;
30593;SDS011;33199;47.590;8.300;2023-03-01T04:35:08;4.95;;;4.43;;
30593;SDS011;33199;47.590;8.300;2023-03-01T04:37:34;7.00;;;5.25;;
30593;SDS011;33199;47.590;8.300;2023-03-01T04:40:00;5.85;;;5.07;;
30593;SDS011;33199;47.590;8.300;2023-03-01T04:42:37;6.30;;;5.20;;
30593;SDS011;33199;47.590;8.300;2023-03-01T04:45:02;6.90;;;4.78;;
30593;SDS011;33199;47.590;8.300;2023-03-01T04:47:37;6.45;;;5.00;;
30593;SDS011;33199;47.590;8.300;2023-03-01T04:50:07;7.32;;;5.07;;
30593;SDS011;33199;47.590;8.300;2023-03-01T04:52:34;5.22;;;4.72;;
30593;SDS011;33199;47.590;8.300;2023-03-01T04:55:00;6.13;;;4.85;;
30593;SDS011;33199;47.590;8.300;2023-03-01T04:57:28;5.55;;;4.93;;
30593;SDS011;33199;47.590;8.300;2023-03-01T04:59:54;6.72;;;4.65;;
30593;SDS011;33199;47.590;8.300;2023-03-01T05:02:19;5.32;;;4.15;;
30593;SDS011;33199;47.590;8.300;2023-03-01T05:04:45;8.10;;;5.50;;
30593;SDS011;33199;47.590;8.300;2023-03-01T05:07:10;5.82;;;4.85;;
30593;SDS011;33199;47.590;8.300;2023-03-01T05:09:38;6.43;;;5.22;;
30593;SDS011;33199;47.590;8.300;2023-03-01T05:12:03;5.43;;;4.78;;
30593;SDS011;33199;47.590;8.300;2023-03-01T05:14:29;6.32;;;5.00;;
30593;SDS011;33199;47.590;8.300;2023-03-01T05:16:55;6.72;;;4.72;;
30593;SDS011;33199;47.590;8.300;2023-03-01T05:19:28;6.40;;;5.15;;
30593;SDS011;33199;47.590;8.300;2023-03-01T05:21:55;6.68;;;5.15;;
30593;SDS011;33199;47.590;8.300;2023-03-01T05:24:29;7.38;;;5.32;;
30593;SDS011;33199;47.590;8.300;2023-03-01T05:26:57;6.15;;;5.25;;
30593;SDS011;33199;47.590;8.300;2023-03-01T05:29:23;5.47;;;4.95;;
30593;SDS011;33199;47.590;8.300;2023-03-01T05:31:51;6.38;;;4.70;;
30593;SDS011;33199;47.590;8.300;2023-03-01T05:34:18;4.57;;;4.18;;
30593;SDS011;33199;47.590;8.300;2023-03-01T05:36:47;27.02;;;14.13;;
30593;SDS011;33199;47.590;8.300;2023-03-01T05:39:13;23.35;;;14.77;;
30593;SDS011;33199;47.590;8.300;2023-03-01T05:41:39;22.98;;;13.05;;
30593;SDS011;33199;47.590;8.300;2023-03-01T05:44:06;22.90;;;13.05;;
30593;SDS011;33199;47.590;8.300;2023-03-01T05:46:32;18.38;;;11.48;;
30593;SDS011;33199;47.590;8.300;2023-03-01T05:48:57;19.08;;;11.52;;
30593;SDS011;33199;47.590;8.300;2023-03-01T05:51:23;16.83;;;11.52;;
30593;SDS011;33199;47.590;8.300;2023-03-01T05:53:48;19.20;;;11.40;;
30593;SDS011;33199;47.590;8.300;2023-03-01T05:56:14;17.25;;;11.75;;
30593;SDS011;33199;47.590;8.300;2023-03-01T05:58:40;16.95;;;11.18;;
30593;SDS011;33199;47.590;8.300;2023-03-01T06:01:10;16.13;;;10.80;;
30593;SDS011;33199;47.590;8.300;2023-03-01T06:03:37;15.68;;;10.95;;
30593;SDS011;33199;47.590;8.300;2023-03-01T06:06:03;17.33;;;10.80;;
30593;SDS011;33199;47.590;8.300;2023-03-01T06:08:28;16.23;;;10.77;;
30593;SDS011;33199;47.590;8.300;2023-03-01T06:10:54;17.42;;;10.82;;
30593;SDS011;33199;47.590;8.300;2023-03-01T06:13:20;19.63;;;11.30;;
30593;SDS011;33199;47.590;8.300;2023-03-01T06:15:45;14.38;;;10.60;;
30593;SDS011;33199;47.590;8.300;2023-03-01T06:18:11;15.27;;;10.23;;
30593;SDS011;33199;47.590;8.300;2023-03-01T06:20:36;16.20;;;10.82;;
30593;SDS011;33199;47.590;8.300;2023-03-01T06:23:02;15.43;;;10.23;;
30593;SDS011;33199;47.590;8.300;2023-03-01T06:25:27;12.70;;;9.40;;
30593;SDS011;33199;47.590;8.300;2023-03-01T06:27:53;15.20;;;9.95;;
30593;SDS011;33199;47.590;8.300;2023-03-01T06:30:20;18.90;;;9.98;;
30593;SDS011;33199;47.590;8.300;2023-03-01T06:32:47;13.38;;;9.02;;
30593;SDS011;33199;47.590;8.300;2023-03-01T06:35:14;15.98;;;9.48;;
30593;SDS011;33199;47.590;8.300;2023-03-01T06:37:45;12.75;;;8.90;;
30593;SDS011;33199;47.590;8.300;2023-03-01T06:40:12;14.20;;;9.30;;
30593;SDS011;33199;47.590;8.300;2023-03-01T06:42:39;13.45;;;8.90;;
30593;SDS011;33199;47.590;8.300;2023-03-01T06:45:06;12.75;;;8.65;;
30593;SDS011;33199;47.590;8.300;2023-03-01T06:47:32;15.85;;;8.88;;
30593;SDS011;33199;47.590;8.300;2023-03-01T06:50:02;11.32;;;8.30;;
30593;SDS011;33199;47.590;8.300;2023-03-01T06:52:28;15.18;;;9.57;;
30593;SDS011;33199;47.590;8.300;2023-03-01T06:54:54;15.15;;;9.55;;
30593;SDS011;33199;47.590;8.300;2023-03-01T06:57:20;13.10;;;8.27;;
30593;SDS011;33199;47.590;8.300;2023-03-01T06:59:46;14.07;;;8.48;;
30593;SDS011;33199;47.590;8.300;2023-03-01T07:02:12;15.45;;;8.18;;
30593;SDS011;33199;47.590;8.300;2023-03-01T07:04:39;12.77;;;8.13;;
30593;SDS011;33199;47.590;8.300;2023-03-01T07:07:06;14.27;;;8.68;;
30593;SDS011;33199;47.590;8.300;2023-03-01T07:09:31;11.73;;;8.27;;
30593;SDS011;33199;47.590;8.300;2023-03-01T07:11:57;12.48;;;7.90;;
30593;SDS011;33199;47.590;8.300;2023-03-01T07:14:23;15.20;;;8.18;;
30593;SDS011;33199;47.590;8.300;2023-03-01T07:16:50;10.32;;;7.43;;
30593;SDS011;33199;47.590;8.300;2023-03-01T07:19:16;13.98;;;7.78;;
30593;SDS011;33199;47.590;8.300;2023-03-01T07:21:42;12.15;;;7.88;;
30593;SDS011;33199;47.590;8.300;2023-03-01T07:24:08;11.85;;;7.93;;
30593;SDS011;33199;47.590;8.300;2023-03-01T07:26:33;9.57;;;6.93;;
30593;SDS011;33199;47.590;8.300;2023-03-01T07:29:03;13.15;;;7.28;;
30593;SDS011;33199;47.590;8.300;2023-03-01T07:31:30;11.48;;;6.97;;
30593;SDS011;33199;47.590;8.300;2023-03-01T07:33:56;11.73;;;8.05;;
30593;SDS011;33199;47.590;8.300;2023-03-01T07:36:22;10.27;;;7.22;;
30593;SDS011;33199;47.590;8.300;2023-03-01T07:38:48;9.82;;;6.80;;
30593;SDS011;33199;47.590;8.300;2023-03-01T07:41:14;10.73;;;6.85;;
30593;SDS011;33199;47.590;8.300;2023-03-01T07:43:40;9.65;;;6.35;;
30593;SDS011;33199;47.590;8.300;2023-03-01T07:46:05;10.00;;;6.82;;
30593;SDS011;33199;47.590;8.300;2023-03-01T07:48:31;11.40;;;7.00;;
30593;SDS011;33199;47.590;8.300;2023-03-01T07:50:58;11.60;;;7.32;;
30593;SDS011;33199;47.590;8.300;2023-03-01T07:53:28;10.02;;;7.20;;
30593;SDS011;33199;47.590;8.300;2023-03-01T07:56:02;8.32;;;6.53;;
30593;SDS011;33199;47.590;8.300;2023-03-01T07:58:29;8.57;;;6.90;;
30593;SDS011;33199;47.590;8.300;2023-03-01T08:00:55;11.15;;;7.30;;
30593;SDS011;33199;47.590;8.300;2023-03-01T08:03:20;10.00;;;6.97;;
30593;SDS011;33199;47.590;8.300;2023-03-01T08:05:46;10.30;;;7.22;;
30593;SDS011;33199;47.590;8.300;2023-03-01T08:08:12;10.18;;;6.63;;
30593;SDS011;33199;47.590;8.300;2023-03-01T08:10:37;7.70;;;6.00;;
30593;SDS011;33199;47.590;8.300;2023-03-01T08:13:03;9.50;;;6.43;;
30593;SDS011;33199;47.590;8.300;2023-03-01T08:15:28;9.30;;;6.88;;
30593;SDS011;33199;47.590;8.300;2023-03-01T08:17:54;9.40;;;6.80;;
30593;SDS011;33199;47.590;8.300;2023-03-01T08:20:19;9.02;;;6.30;;
30593;SDS011;33199;47.590;8.300;2023-03-01T08:22:45;10.60;;;6.85;;
30593;SDS011;33199;47.590;8.300;2023-03-01T08:25:11;8.82;;;6.18;;
30593;SDS011;33199;47.590;8.300;2023-03-01T08:27:36;9.75;;;6.63;;
30593;SDS011;33199;47.590;8.300;2023-03-01T08:30:02;11.80;;;7.07;;
30593;SDS011;33199;47.590;8.300;2023-03-01T08:32:28;9.00;;;6.22;;
30593;SDS011;33199;47.590;8.300;2023-03-01T08:34:54;11.30;;;6.63;;
30593;SDS011;33199;47.590;8.300;2023-03-01T08:37:19;8.50;;;6.60;;
30593;SDS011;33199;47.590;8.300;2023-03-01T08:39:45;8.93;;;6.22;;
30593;SDS011;33199;47.590;8.300;2023-03-01T08:42:11;8.43;;;6.50;;
30593;SDS011;33199;47.590;8.300;2023-03-01T08:44:37;9.38;;;5.97;;
30593;SDS011;33199;47.590;8.300;2023-03-01T08:47:02;9.60;;;6.80;;
30593;SDS011;33199;47.590;8.300;2023-03-01T08:49:29;8.05;;;6.13;;
30593;SDS011;33199;47.590;8.300;2023-03-01T08:51:57;9.80;;;6.40;;
30593;SDS011;33199;47.590;8.300;2023-03-01T08:54:23;8.30;;;5.88;;
30593;SDS011;33199;47.590;8.300;2023-03-01T08:56:48;16.98;;;9.82;;
30593;SDS011;33199;47.590;8.300;2023-03-01T08:59:15;21.25;;;13.90;;
30593;SDS011;33199;47.590;8.300;2023-03-01T09:01:42;23.97;;;13.37;;
30593;SDS011;33199;47.590;8.300;2023-03-01T09:04:08;23.83;;;13.63;;
30593;SDS011;33199;47.590;8.300;2023-03-01T09:06:35;19.90;;;12.60;;
30593;SDS011;33199;47.590;8.300;2023-03-01T09:09:01;22.85;;;13.35;;
30593;SDS011;33199;47.590;8.300;2023-03-01T09:11:28;21.23;;;12.80;;
30593;SDS011;33199;47.590;8.300;2023-03-01T09:13:54;21.00;;;12.88;;
30593;SDS011;33199;47.590;8.300;2023-03-01T09:16:20;22.23;;;13.25;;
30593;SDS011;33199;47.590;8.300;2023-03-01T09:18:50;22.10;;;13.43;;
30593;SDS011;33199;47.590;8.300;2023-03-01T09:21:18;18.55;;;12.20;;
30593;SDS011;33199;47.590;8.300;2023-03-01T09:23:46;19.33;;;12.53;;
30593;SDS011;33199;47.590;8.300;2023-03-01T09:26:14;20.77;;;12.90;;
30593;SDS011;33199;47.590;8.300;2023-03-01T09:28:42;19.83;;;12.60;;
30593;SDS011;33199;47.590;8.300;2023-03-01T09:31:09;20.40;;;12.55;;
30593;SDS011;33199;47.590;8.300;2023-03-01T09:33:37;20.38;;;12.45;;
30593;SDS011;33199;47.590;8.300;2023-03-01T09:36:04;17.23;;;11.02;;
30593;SDS011;33199;47.590;8.300;2023-03-01T09:40:59;17.75;;;11.25;;
30593;SDS011;33199;47.590;8.300;2023-03-01T09:46:43;16.90;;;10.55;;
30593;SDS011;33199;47.590;8.300;2023-03-01T09:49:32;16.35;;;10.68;;
30593;SDS011;33199;47.590;8.300;2023-03-01T09:54:49;20.25;;;11.25;;
30593;SDS011;33199;47.590;8.300;2023-03-01T09:57:19;17.88;;;10.85;;
30593;SDS011;33199;47.590;8.300;2023-03-01T10:05:25;17.65;;;10.82;;
30593;SDS011;33199;47.590;8.300;2023-03-01T10:10:34;13.88;;;9.40;;
30593;SDS011;33199;47.590;8.300;2023-03-01T10:13:04;16.35;;;9.43;;
30593;SDS011;33199;47.590;8.300;2023-03-01T10:15:53;14.05;;;9.70;;
30593;SDS011;33199;47.590;8.300;2023-03-01T10:18:27;16.52;;;9.63;;
30593;SDS011;33199;47.590;8.300;2023-03-01T10:21:01;17.17;;;9.35;;
30593;SDS011;33199;47.590;8.300;2023-03-01T10:23:39;14.52;;;9.23;;
30593;SDS011;33199;47.590;8.300;2023-03-01T10:29:09;15.07;;;8.95;;
30593;SDS011;33199;47.590;8.300;2023-03-01T10:31:46;13.93;;;9.10;;
30593;SDS011;33199;47.590;8.300;2023-03-01T10:34:20;12.38;;;8.43;;
30593;SDS011;33199;47.590;8.300;2023-03-01T10:36:57;13.32;;;9.02;;
30593;SDS011;33199;47.590;8.300;2023-03-01T10:39:26;13.48;;;8.52;;
30593;SDS011;33199;47.590;8.300;2023-03-01T10:42:00;14.40;;;8.77;;
30593;SDS011;33199;47.590;8.300;2023-03-01T10:47:04;12.40;;;8.77;;
30593;SDS011;33199;47.590;8.300;2023-03-01T10:49:34;28.27;;;14.35;;
30593;SDS011;33199;47.590;8.300;2023-03-01T10:52:11;29.58;;;17.67;;
30593;SDS011;33199;47.590;8.300;2023-03-01T10:54:50;25.33;;;15.75;;
30593;SDS011;33199;47.590;8.300;2023-03-01T10:57:32;25.55;;;15.32;;
30593;SDS011;33199;47.590;8.300;2023-03-01T11:02:42;23.65;;;15.15;;
30593;SDS011;33199;47.590;8.300;2023-03-01T11:05:16;28.92;;;16.75;;
30593;SDS011;33199;47.590;8.300;2023-03-01T11:10:22;26.45;;;15.43;;
30593;SDS011;33199;47.590;8.300;2023-03-01T11:12:51;23.13;;;14.65;;
30593;SDS011;33199;47.590;8.300;2023-03-01T11:15:25;24.35;;;14.43;;
30593;SDS011;33199;47.590;8.300;2023-03-01T11:17:53;22.10;;;13.20;;
30593;SDS011;33199;47.590;8.300;2023-03-01T11:20:23;21.55;;;13.60;;
30593;SDS011;33199;47.590;8.300;2023-03-01T11:22:59;20.35;;;12.65;;
30593;SDS011;33199;47.590;8.300;2023-03-01T11:25:31;20.73;;;12.95;;
30593;SDS011;33199;47.590;8.300;2023-03-01T11:28:01;23.88;;;13.43;;
30593;SDS011;33199;47.590;8.300;2023-03-01T11:33:17;22.30;;;11.88;;
30593;SDS011;33199;47.590;8.300;2023-03-01T11:38:53;19.77;;;12.38;;
30593;SDS011;33199;47.590;8.300;2023-03-01T11:41:20;17.95;;;11.18;;
30593;SDS011;33199;47.590;8.300;2023-03-01T11:44:28;16.60;;;10.77;;
30593;SDS011;33199;47.590;8.300;2023-03-01T11:49:40;18.98;;;10.52;;
30593;SDS011;33199;47.590;8.300;2023-03-01T11:52:45;17.48;;;10.02;;
30593;SDS011;33199;47.590;8.300;2023-03-01T12:11:12;12.57;;;8.32;;
30593;SDS011;33199;47.590;8.300;2023-03-01T12:13:47;16.17;;;8.77;;
30593;SDS011;33199;47.590;8.300;2023-03-01T12:22:04;11.45;;;8.48;;
30593;SDS011;33199;47.590;8.300;2023-03-01T12:27:22;13.65;;;8.18;;
30593;SDS011;33199;47.590;8.300;2023-03-01T12:30:02;12.57;;;8.27;;
30593;SDS011;33199;47.590;8.300;2023-03-01T12:43:55;11.55;;;6.95;;
30593;SDS011;33199;47.590;8.300;2023-03-01T12:49:22;10.27;;;7.07;;
30593;SDS011;33199;47.590;8.300;2023-03-01T12:55:16;9.30;;;7.30;;
30593;SDS011;33199;47.590;8.300;2023-03-01T13:00:28;9.80;;;7.40;;
30593;SDS011;33199;47.590;8.300;2023-03-01T13:08:53;9.13;;;7.05;;
30593;SDS011;33199;47.590;8.300;2023-03-01T13:11:25;12.23;;;6.90;;
30593;SDS011;33199;47.590;8.300;2023-03-01T13:13:51;11.15;;;7.22;;
30593;SDS011;33199;47.590;8.300;2023-03-01T13:16:38;11.35;;;7.13;;
30593;SDS011;33199;47.590;8.300;2023-03-01T13:21:44;11.80;;;7.15;;
30593;SDS011;33199;47.590;8.300;2023-03-01T13:27:21;8.82;;;6.75;;
30593;SDS011;33199;47.590;8.300;2023-03-01T13:29:57;8.55;;;6.68;;
30593;SDS011;33199;47.590;8.300;2023-03-01T13:32:31;9.65;;;7.03;;
30593;SDS011;33199;47.590;8.300;2023-03-01T13:34:59;8.38;;;5.82;;
30593;SDS011;33199;47.590;8.300;2023-03-01T13:37:27;10.15;;;6.13;;
30593;SDS011;33199;47.590;8.300;2023-03-01T13:39:58;7.93;;;6.13;;
30593;SDS011;33199;47.590;8.300;2023-03-01T13:45:01;8.40;;;6.47;;
30593;SDS011;33199;47.590;8.300;2023-03-01T13:47:29;10.20;;;6.97;;
30593;SDS011;33199;47.590;8.300;2023-03-01T13:49:58;10.43;;;6.43;;
30593;SDS011;33199;47.590;8.300;2023-03-01T14:03:28;8.68;;;6.00;;
30593;SDS011;33199;47.590;8.300;2023-03-01T14:05:59;10.73;;;6.53;;
30593;SDS011;33199;47.590;8.300;2023-03-01T14:08:33;7.57;;;5.75;;
30593;SDS011;33199;47.590;8.300;2023-03-01T14:16:41;9.50;;;5.85;;
30593;SDS011;33199;47.590;8.300;2023-03-01T14:19:14;9.48;;;6.40;;
30593;SDS011;33199;47.590;8.300;2023-03-01T14:21:44;8.52;;;5.93;;
30593;SDS011;33199;47.590;8.300;2023-03-01T14:24:22;8.35;;;6.13;;
30593;SDS011;33199;47.590;8.300;2023-03-01T14:26:51;11.55;;;6.32;;
30593;SDS011;33199;47.590;8.300;2023-03-01T14:29:53;8.52;;;5.93;;
30593;SDS011;33199;47.590;8.300;2023-03-01T14:34:46;8.30;;;5.95;;
30593;SDS011;33199;47.590;8.300;2023-03-01T14:39:45;8.32;;;5.38;;
30593;SDS011;33199;47.590;8.300;2023-03-01T14:42:11;6.47;;;5.25;;
30593;SDS011;33199;47.590;8.300;2023-03-01T14:44:40;8.68;;;5.60;;
30593;SDS011;33199;47.590;8.300;2023-03-01T14:47:30;7.78;;;5.85;;
30593;SDS011;33199;47.590;8.300;2023-03-01T14:50:08;9.98;;;5.70;;
30593;SDS011;33199;47.590;8.300;2023-03-01T14:52:41;8.55;;;6.28;;
30593;SDS011;33199;47.590;8.300;2023-03-01T14:55:20;8.63;;;5.88;;
30593;SDS011;33199;47.590;8.300;2023-03-01T14:57:58;7.53;;;5.70;;
30593;SDS011;33199;47.590;8.300;2023-03-01T15:00:24;8.07;;;6.07;;
30593;SDS011;33199;47.590;8.300;2023-03-01T15:02:53;8.52;;;5.38;;
30593;SDS011;33199;47.590;8.300;2023-03-01T15:05:41;6.15;;;5.53;;
30593;SDS011;33199;47.590;8.300;2023-03-01T15:08:07;8.48;;;5.53;;
30593;SDS011;33199;47.590;8.300;2023-03-01T15:10:44;7.15;;;5.60;;
30593;SDS011;33199;47.590;8.300;2023-03-01T15:13:29;5.78;;;4.88;;
30593;SDS011;33199;47.590;8.300;2023-03-01T15:16:30;6.93;;;5.20;;
30593;SDS011;33199;47.590;8.300;2023-03-01T15:18:58;6.03;;;5.03;;
30593;SDS011;33199;47.590;8.300;2023-03-01T15:21:35;8.07;;;5.88;;
30593;SDS011;33199;47.590;8.300;2023-03-01T15:24:05;6.47;;;5.15;;
30593;SDS011;33199;47.590;8.300;2023-03-01T15:26:43;7.13;;;5.63;;
30593;SDS011;33199;47.590;8.300;2023-03-01T15:29:15;6.25;;;5.15;;
30593;SDS011;33199;47.590;8.300;2023-03-01T15:31:43;7.47;;;5.80;;
30593;SDS011;33199;47.590;8.300;2023-03-01T15:36:53;6.75;;;5.13;;
30593;SDS011;33199;47.590;8.300;2023-03-01T15:39:39;8.13;;;5.47;;
30593;SDS011;33199;47.590;8.300;2023-03-01T15:45:07;7.90;;;5.53;;
30593;SDS011;33199;47.590;8.300;2023-03-01T15:47:33;7.03;;;5.10;;
30593;SDS011;33199;47.590;8.300;2023-03-01T15:50:05;5.88;;;5.18;;
30593;SDS011;33199;47.590;8.300;2023-03-01T15:52:41;6.95;;;5.60;;
30593;SDS011;33199;47.590;8.300;2023-03-01T15:55:21;5.75;;;5.10;;
30593;SDS011;33199;47.590;8.300;2023-03-01T15:58:01;6.55;;;5.35;;
30593;SDS011;33199;47.590;8.300;2023-03-01T16:00:30;6.78;;;5.13;;
30593;SDS011;33199;47.590;8.300;2023-03-01T16:02:55;6.00;;;4.65;;
30593;SDS011;33199;47.590;8.300;2023-03-01T16:05:22;6.53;;;5.35;;
30593;SDS011;33199;47.590;8.300;2023-03-01T16:07:59;8.13;;;6.15;;
30593;SDS011;33199;47.590;8.300;2023-03-01T16:10:26;7.65;;;4.88;;
30593;SDS011;33199;47.590;8.300;2023-03-01T16:12:52;6.57;;;5.05;;
30593;SDS011;33199;47.590;8.300;2023-03-01T16:15:22;6.25;;;5.00;;
30593;SDS011;33199;47.590;8.300;2023-03-01T16:17:53;6.10;;;4.95;;
30593;SDS011;33199;47.590;8.300;2023-03-01T16:20:19;6.65;;;5.50;;
30593;SDS011;33199;47.590;8.300;2023-03-01T16:22:45;6.88;;;4.75;;
30593;SDS011;33199;47.590;8.300;2023-03-01T16:25:15;7.68;;;5.60;;
30593;SDS011;33199;47.590;8.300;2023-03-01T16:27:42;6.20;;;5.50;;
30593;SDS011;33199;47.590;8.300;2023-03-01T16:30:09;6.85;;;5.57;;
30593;SDS011;33199;47.590;8.300;2023-03-01T16:32:39;6.82;;;5.28;;
30593;SDS011;33199;47.590;8.300;2023-03-01T16:35:05;7.55;;;5.30;;
30593;SDS011;33199;47.590;8.300;2023-03-01T16:37:33;6.63;;;4.93;;
30593;SDS011;33199;47.590;8.300;2023-03-01T16:39:59;5.88;;;5.18;;
30593;SDS011;33199;47.590;8.300;2023-03-01T16:42:25;8.25;;;5.13;;
30593;SDS011;33199;47.590;8.300;2023-03-01T16:44:54;5.10;;;4.60;;
30593;SDS011;33199;47.590;8.300;2023-03-01T16:47:20;6.38;;;5.03;;
30593;SDS011;33199;47.590;8.300;2023-03-01T16:49:46;6.53;;;4.88;;
30593;SDS011;33199;47.590;8.300;2023-03-01T16:52:12;7.03;;;4.90;;
30593;SDS011;33199;47.590;8.300;2023-03-01T16:54:37;6.13;;;4.90;;
30593;SDS011;33199;47.590;8.300;2023-03-01T16:57:03;8.73;;;4.97;;
30593;SDS011;33199;47.590;8.300;2023-03-01T16:59:29;8.05;;;5.18;;
30593;SDS011;33199;47.590;8.300;2023-03-01T17:01:55;6.72;;;5.00;;
30593;SDS011;33199;47.590;8.300;2023-03-01T17:04:21;6.40;;;4.70;;